createdAt,value
2019-03-19T00:02:19.704Z,3.37
2019-03-19T00:14:34.959Z,3.36
2019-03-19T00:17:03.138Z,3.16
2019-03-19T00:19:31.275Z,3.09
2019-03-19T00:21:59.285Z,2.90
2019-03-19T00:24:27.661Z,3.08
2019-03-19T00:26:55.699Z,3.26
2019-03-19T00:29:23.662Z,3.23
2019-03-19T00:31:51.999Z,3.17
2019-03-19T00:34:19.848Z,3.20
2019-03-19T00:36:47.858Z,3.26
2019-03-19T00:39:15.876Z,3.30
2019-03-19T00:41:43.937Z,3.14
2019-03-19T00:44:11.832Z,3.05
2019-03-19T00:46:39.723Z,3.15
2019-03-19T00:49:07.773Z,3.28
2019-03-19T00:51:35.835Z,3.24
2019-03-19T00:54:04.102Z,3.17
2019-03-19T00:56:33.051Z,3.27
2019-03-19T00:59:01.173Z,3.31
2019-03-19T01:01:29.204Z,3.33
2019-03-19T01:03:57.101Z,3.20
2019-03-19T01:06:25.122Z,3.24
2019-03-19T01:08:53.347Z,3.38
2019-03-19T01:11:21.233Z,3.47
2019-03-19T01:13:49.230Z,3.47
2019-03-19T01:16:17.445Z,3.32
2019-03-19T01:18:45.648Z,3.38
2019-03-19T01:21:13.936Z,3.40
2019-03-19T01:23:42.028Z,3.45
2019-03-19T01:26:09.969Z,3.38
2019-03-19T01:28:37.993Z,3.40
2019-03-19T01:31:06.057Z,3.32
2019-03-19T01:33:34.140Z,3.27
2019-03-19T01:36:02.159Z,3.15
2019-03-19T01:38:30.211Z,3.18
2019-03-19T01:40:58.278Z,3.14
2019-03-19T01:43:26.459Z,3.13
2019-03-19T01:45:54.424Z,2.98
2019-03-19T01:48:22.499Z,3.01
2019-03-19T01:50:50.390Z,3.10
2019-03-19T01:53:18.439Z,3.01
2019-03-19T01:55:46.367Z,3.06
2019-03-19T01:58:14.475Z,3.05
2019-03-19T02:00:42.451Z,2.97
2019-03-19T02:03:10.564Z,2.96
2019-03-19T02:05:38.579Z,2.97
2019-03-19T02:08:06.561Z,3.11
2019-03-19T02:10:34.526Z,3.02
2019-03-19T02:13:02.514Z,2.99
2019-03-19T02:15:31.553Z,3.14
2019-03-19T02:17:59.580Z,3.01
2019-03-19T02:20:27.478Z,2.98
2019-03-19T02:22:55.504Z,2.98
2019-03-19T02:25:23.423Z,3.00
2019-03-19T02:27:51.412Z,2.88
2019-03-19T02:30:19.598Z,2.80
2019-03-19T02:32:47.607Z,2.80
2019-03-19T02:35:15.441Z,2.74
2019-03-19T02:37:43.628Z,2.72
2019-03-19T02:40:12.971Z,2.72
2019-03-19T02:42:40.941Z,2.64
2019-03-19T02:45:09.143Z,2.71
2019-03-19T02:47:37.326Z,2.72
2019-03-19T02:50:05.589Z,2.65
2019-03-19T02:52:33.614Z,2.65
2019-03-19T02:55:01.707Z,2.54
2019-03-19T02:57:29.273Z,2.50
2019-03-19T02:59:57.254Z,2.42
2019-03-19T03:02:25.274Z,2.45
2019-03-19T03:04:53.144Z,2.41
2019-03-19T03:07:21.217Z,2.41
2019-03-19T03:09:49.079Z,2.49
2019-03-19T03:12:17.054Z,2.51
2019-03-19T03:14:46.310Z,2.27
2019-03-19T03:17:14.543Z,2.41
2019-03-19T03:19:42.434Z,2.36
2019-03-19T03:22:10.444Z,2.28
2019-03-19T03:24:38.557Z,2.26
2019-03-19T03:27:06.394Z,2.28
2019-03-19T03:29:34.453Z,2.25
2019-03-19T03:32:02.349Z,2.22
2019-03-19T03:34:30.253Z,2.31
2019-03-19T03:36:58.443Z,2.32
2019-03-19T03:39:27.500Z,2.32
2019-03-19T03:41:55.706Z,2.40
2019-03-19T03:44:24.411Z,2.38
2019-03-19T03:46:52.422Z,2.31
2019-03-19T03:49:20.186Z,2.36
2019-03-19T03:51:48.108Z,2.36
2019-03-19T03:54:15.937Z,2.29
2019-03-19T03:56:44.016Z,2.21
2019-03-19T03:59:12.115Z,2.18
2019-03-19T04:01:39.979Z,2.17
2019-03-19T04:04:07.803Z,2.19
2019-03-19T04:06:35.869Z,2.15
2019-03-19T04:09:09.148Z,2.15
2019-03-19T04:11:35.360Z,2.12
2019-03-19T04:14:03.447Z,2.05
2019-03-19T04:16:31.575Z,2.03
2019-03-19T04:18:59.359Z,1.93
2019-03-19T04:21:27.558Z,1.86
2019-03-19T04:23:55.407Z,1.86
2019-03-19T04:26:23.516Z,1.83
2019-03-19T04:28:52.286Z,1.84
2019-03-19T04:31:20.552Z,1.92
2019-03-19T04:33:48.602Z,1.91
2019-03-19T04:36:16.751Z,1.94
2019-03-19T04:38:44.762Z,1.95
2019-03-19T04:41:12.874Z,1.85
2019-03-19T04:43:40.740Z,1.89
2019-03-19T04:46:08.564Z,1.89
2019-03-19T04:48:36.558Z,1.91
2019-03-19T04:51:04.476Z,1.87
2019-03-19T04:53:32.511Z,1.85
2019-03-19T04:56:00.325Z,1.92
2019-03-19T04:58:28.454Z,1.95
2019-03-19T05:00:56.353Z,1.95
2019-03-19T05:03:24.579Z,1.88
2019-03-19T05:05:53.005Z,1.94
2019-03-19T05:08:21.161Z,1.94
2019-03-19T05:10:49.235Z,1.87
2019-03-19T05:13:17.300Z,1.85
2019-03-19T05:15:45.405Z,1.84
2019-03-19T05:18:13.520Z,1.94
2019-03-19T05:20:41.545Z,2.01
2019-03-19T05:23:11.152Z,2.00
2019-03-19T05:25:39.413Z,2.01
2019-03-19T05:28:07.631Z,2.18
2019-03-19T05:30:35.563Z,2.22
2019-03-19T05:33:03.660Z,2.30
2019-03-19T05:35:31.626Z,2.39
2019-03-19T05:37:59.871Z,2.50
2019-03-19T05:40:27.958Z,2.57
2019-03-19T05:42:56.298Z,2.74
2019-03-19T05:45:24.258Z,3.05
2019-03-19T05:47:52.592Z,3.15
2019-03-19T05:50:22.328Z,3.08
2019-03-19T05:52:50.503Z,3.13
2019-03-19T05:55:18.260Z,3.27
2019-03-19T05:57:49.771Z,3.43
2019-03-19T06:00:16.807Z,3.30
2019-03-19T06:02:44.891Z,3.44
2019-03-19T06:05:12.937Z,3.50
2019-03-19T06:07:41.045Z,3.39
2019-03-19T06:10:08.859Z,3.36
2019-03-19T06:12:36.983Z,3.36
2019-03-19T06:15:05.330Z,3.38
2019-03-19T06:17:33.381Z,3.38
2019-03-19T06:20:01.382Z,3.37
2019-03-19T06:22:29.505Z,3.47
2019-03-19T06:24:57.344Z,3.53
2019-03-19T06:27:25.259Z,3.50
2019-03-19T06:29:53.159Z,3.56
2019-03-19T06:32:21.159Z,3.66
2019-03-19T06:34:49.191Z,3.90
2019-03-19T06:37:17.073Z,4.08
2019-03-19T06:39:45.140Z,4.08
2019-03-19T06:42:13.117Z,4.03
2019-03-19T06:44:41.112Z,4.08
2019-03-19T06:47:09.119Z,4.09
2019-03-19T06:49:37.221Z,4.09
2019-03-19T06:52:05.253Z,4.11
2019-03-19T06:54:33.355Z,4.11
2019-03-19T06:57:01.394Z,4.06
2019-03-19T06:59:29.531Z,4.14
2019-03-19T07:01:59.288Z,4.22
2019-03-19T07:04:27.226Z,4.30
2019-03-19T07:06:55.041Z,4.30
2019-03-19T07:09:23.224Z,4.36
2019-03-19T07:11:50.963Z,4.41
2019-03-19T07:14:19.001Z,4.39
2019-03-19T07:16:47.815Z,4.48
2019-03-19T07:19:15.692Z,4.60
2019-03-19T07:21:44.616Z,4.69
2019-03-19T07:24:13.696Z,4.79
2019-03-19T07:26:41.672Z,4.85
2019-03-19T07:29:09.763Z,4.94
2019-03-19T07:31:37.684Z,5.00
2019-03-19T07:34:05.825Z,5.07
2019-03-19T07:36:33.935Z,5.05
2019-03-19T07:39:01.857Z,5.03
2019-03-19T07:41:30.282Z,5.05
2019-03-19T07:43:59.494Z,5.10
2019-03-19T07:46:27.341Z,5.13
2019-03-19T07:48:55.684Z,5.19
2019-03-19T07:51:23.617Z,5.26
2019-03-19T07:53:51.709Z,5.39
2019-03-19T07:56:21.396Z,5.54
2019-03-19T07:58:49.363Z,5.66
2019-03-19T08:01:17.425Z,5.72
2019-03-19T08:03:45.685Z,5.99
2019-03-19T08:06:13.865Z,6.10
2019-03-19T08:08:41.711Z,6.02
2019-03-19T08:11:09.614Z,6.04
2019-03-19T08:13:37.625Z,6.00
2019-03-19T08:16:05.601Z,5.94
2019-03-19T08:18:36.002Z,6.17
2019-03-19T08:21:03.767Z,6.28
2019-03-19T08:23:31.707Z,6.45
2019-03-19T08:25:59.891Z,6.54
2019-03-19T08:28:27.699Z,6.73
2019-03-19T08:30:55.720Z,6.85
2019-03-19T08:33:23.809Z,7.15
2019-03-19T08:35:51.787Z,7.40
2019-03-19T08:38:19.744Z,7.82
2019-03-19T08:40:47.686Z,8.14
2019-03-19T08:43:16.675Z,8.26
2019-03-19T08:45:44.551Z,8.54
2019-03-19T08:48:12.583Z,8.65
2019-03-19T08:50:40.397Z,8.70
2019-03-19T08:53:08.696Z,8.68
2019-03-19T08:55:36.525Z,9.12
2019-03-19T08:58:04.530Z,9.34
2019-03-19T09:00:32.611Z,10.16
2019-03-19T09:03:00.674Z,10.58
2019-03-19T09:05:28.530Z,10.98
2019-03-19T09:07:56.598Z,11.29
2019-03-19T09:10:24.459Z,11.34
2019-03-19T09:12:52.636Z,11.95
2019-03-19T09:15:20.510Z,11.20
2019-03-19T09:17:48.528Z,10.93
2019-03-19T09:20:16.574Z,10.97
2019-03-19T09:22:44.645Z,10.90
2019-03-19T09:25:12.719Z,10.65
2019-03-19T09:27:41.616Z,10.30
2019-03-19T09:30:12.047Z,10.24
2019-03-19T09:32:40.033Z,10.19
2019-03-19T09:35:08.025Z,10.54
2019-03-19T09:37:36.049Z,10.76
2019-03-19T09:40:04.553Z,11.25
2019-03-19T09:42:32.919Z,11.14
2019-03-19T09:45:00.933Z,11.00
2019-03-19T09:47:29.001Z,11.34
2019-03-19T09:49:57.102Z,11.22
2019-03-19T09:52:25.207Z,10.85
2019-03-19T09:54:53.076Z,10.87
2019-03-19T09:57:21.044Z,10.63
2019-03-19T09:59:48.883Z,10.23
2019-03-19T10:02:16.973Z,9.91
2019-03-19T10:04:44.999Z,10.07
2019-03-19T10:07:12.955Z,10.12
2019-03-19T10:09:41.000Z,10.20
2019-03-19T10:12:09.999Z,10.18
2019-03-19T10:14:38.123Z,10.26
2019-03-19T10:17:06.242Z,10.52
2019-03-19T10:19:34.273Z,10.88
2019-03-19T10:22:02.750Z,11.15
2019-03-19T10:24:30.684Z,11.40
2019-03-19T10:26:58.757Z,11.62
2019-03-19T10:29:37.603Z,11.49
2019-03-19T10:31:56.646Z,11.25
2019-03-19T10:34:24.617Z,11.18
2019-03-19T10:36:52.820Z,11.59
2019-03-19T10:39:20.795Z,12.22
2019-03-19T10:41:48.966Z,12.35
2019-03-19T10:44:17.066Z,12.47
2019-03-19T10:46:44.843Z,12.11
2019-03-19T10:49:12.609Z,12.40
2019-03-19T10:51:40.571Z,13.76
2019-03-19T10:54:08.480Z,13.73
2019-03-19T10:56:38.795Z,13.56
2019-03-19T10:59:06.486Z,13.59
2019-03-19T11:01:34.514Z,13.38
2019-03-19T11:04:02.363Z,13.11
2019-03-19T11:06:30.431Z,12.87
2019-03-19T11:08:58.321Z,12.35
2019-03-19T11:11:26.399Z,11.96
2019-03-19T11:13:54.233Z,11.68
2019-03-19T11:16:22.140Z,11.43
2019-03-19T11:18:50.221Z,11.24
2019-03-19T11:21:18.232Z,11.40
2019-03-19T11:23:46.160Z,11.84
2019-03-19T11:26:15.777Z,11.48
2019-03-19T11:28:43.754Z,11.41
2019-03-19T11:31:12.030Z,11.43
2019-03-19T11:33:39.991Z,10.75
2019-03-19T11:36:08.028Z,10.92
2019-03-19T11:38:36.067Z,10.96
2019-03-19T11:41:04.122Z,10.88
2019-03-19T11:43:32.321Z,10.79
2019-03-19T11:46:00.440Z,10.83
2019-03-19T11:48:28.332Z,10.71
2019-03-19T11:50:56.309Z,10.55
2019-03-19T11:53:24.343Z,10.45
2019-03-19T11:55:52.246Z,10.83
2019-03-19T11:58:21.188Z,11.20
2019-03-19T12:00:52.500Z,11.61
2019-03-19T12:03:20.507Z,11.75
2019-03-19T12:05:48.454Z,11.95
2019-03-19T12:08:16.368Z,12.35
2019-03-19T12:10:47.268Z,12.78
2019-03-19T12:13:15.418Z,13.25
2019-03-19T12:15:43.396Z,13.15
2019-03-19T12:18:11.488Z,13.05
2019-03-19T12:20:39.503Z,12.96
2019-03-19T12:23:07.521Z,12.77
2019-03-19T12:25:35.421Z,12.90
2019-03-19T12:28:03.792Z,12.80
2019-03-19T12:30:31.770Z,13.39
2019-03-19T12:32:59.706Z,13.16
2019-03-19T12:35:27.779Z,12.31
2019-03-19T12:37:55.597Z,11.98
2019-03-19T12:40:23.517Z,11.96
2019-03-19T12:42:51.624Z,11.46
2019-03-19T12:45:19.522Z,11.62
2019-03-19T12:47:47.511Z,11.07
2019-03-19T12:50:15.831Z,10.81
2019-03-19T12:52:43.744Z,10.33
2019-03-19T12:55:11.741Z,10.35
2019-03-19T12:57:39.833Z,10.28
2019-03-19T13:00:14.103Z,10.08
2019-03-19T13:02:42.112Z,10.53
2019-03-19T13:05:10.227Z,10.78
2019-03-19T13:07:38.160Z,11.10
2019-03-19T13:10:08.169Z,11.38
2019-03-19T13:12:36.233Z,11.79
2019-03-19T13:15:05.047Z,12.43
2019-03-19T13:17:33.465Z,12.14
2019-03-19T13:20:02.325Z,12.42
2019-03-19T13:22:30.428Z,12.38
2019-03-19T13:24:58.489Z,12.08
2019-03-19T13:27:26.618Z,11.97
2019-03-19T13:29:54.683Z,11.61
2019-03-19T13:32:22.944Z,11.96
2019-03-19T13:34:51.737Z,11.97
2019-03-19T13:37:19.767Z,12.07
2019-03-19T13:39:47.744Z,11.95
2019-03-19T13:42:15.654Z,12.09
2019-03-19T13:44:46.738Z,12.10
2019-03-19T13:47:15.666Z,11.99
2019-03-19T13:49:44.078Z,12.02
2019-03-19T13:52:12.194Z,11.68
2019-03-19T13:54:39.982Z,11.85
2019-03-19T13:57:07.864Z,11.74
2019-03-19T13:59:36.160Z,11.62
2019-03-19T14:02:04.262Z,11.57
2019-03-19T14:04:32.283Z,11.59
2019-03-19T14:07:00.312Z,11.76
2019-03-19T14:09:28.352Z,12.16
2019-03-19T14:11:56.461Z,12.65
2019-03-19T14:14:24.384Z,13.45
2019-03-19T14:16:52.520Z,13.63
2019-03-19T14:19:20.527Z,13.37
2019-03-19T14:21:48.417Z,13.66
2019-03-19T14:24:16.486Z,14.63
2019-03-19T14:26:44.582Z,14.68
2019-03-19T14:29:12.444Z,13.89
2019-03-19T14:31:40.334Z,12.61
2019-03-19T14:34:08.437Z,12.22
2019-03-19T14:36:36.468Z,11.75
2019-03-19T14:39:07.201Z,11.47
2019-03-19T14:41:35.414Z,11.28
2019-03-19T14:44:03.618Z,11.25
2019-03-19T14:46:31.616Z,11.44
2019-03-19T14:48:59.545Z,11.53
2019-03-19T14:51:27.639Z,11.51
2019-03-19T14:53:55.610Z,12.30
2019-03-19T14:56:23.767Z,12.23
2019-03-19T14:58:51.752Z,11.92
2019-03-19T15:01:19.971Z,11.41
2019-03-19T15:03:48.280Z,10.81
2019-03-19T15:06:16.647Z,10.39
2019-03-19T15:08:44.534Z,10.24
2019-03-19T15:11:12.610Z,10.03
2019-03-19T15:13:40.682Z,10.06
2019-03-19T15:16:08.705Z,9.97
2019-03-19T15:18:36.626Z,9.59
2019-03-19T15:21:04.561Z,9.45
2019-03-19T15:23:32.503Z,9.26
2019-03-19T15:26:01.540Z,8.97
2019-03-19T15:28:29.739Z,8.67
2019-03-19T15:30:57.609Z,8.48
2019-03-19T15:33:25.611Z,8.23
2019-03-19T15:35:53.780Z,8.07
2019-03-19T15:38:21.656Z,7.87
2019-03-19T15:40:49.568Z,7.90
2019-03-19T15:43:17.342Z,7.68
2019-03-19T15:45:45.576Z,7.67
2019-03-19T15:48:13.495Z,7.52
2019-03-19T15:50:41.947Z,7.40
2019-03-19T15:53:10.122Z,7.34
2019-03-19T15:55:38.108Z,7.38
2019-03-19T15:58:06.114Z,7.33
2019-03-19T16:00:34.151Z,7.27
2019-03-19T16:03:02.055Z,7.10
2019-03-19T16:05:30.219Z,7.06
2019-03-19T16:07:58.122Z,6.86
2019-03-19T16:10:27.147Z,6.89
2019-03-19T16:12:55.271Z,6.85
2019-03-19T16:15:23.594Z,6.60
2019-03-19T16:17:51.622Z,6.59
2019-03-19T16:20:19.857Z,6.57
2019-03-19T16:22:47.881Z,6.46
2019-03-19T16:25:15.850Z,6.41
2019-03-19T16:27:43.871Z,6.23
2019-03-19T16:30:12.871Z,6.12
2019-03-19T16:32:40.783Z,6.20
2019-03-19T16:35:09.052Z,6.14
2019-03-19T16:37:37.220Z,6.03
2019-03-19T16:40:06.296Z,5.99
2019-03-19T16:42:34.267Z,5.92
2019-03-19T16:45:02.088Z,5.88
2019-03-19T16:47:30.209Z,5.88
2019-03-19T16:49:58.119Z,5.79
2019-03-19T16:52:26.147Z,5.83
2019-03-19T16:54:54.261Z,5.91
2019-03-19T16:57:22.482Z,5.95
2019-03-19T16:59:52.159Z,6.02
2019-03-19T17:02:20.025Z,6.01
2019-03-19T17:04:47.895Z,5.98
2019-03-19T17:07:16.013Z,5.97
2019-03-19T17:09:44.321Z,5.88
2019-03-19T17:12:12.429Z,5.85
2019-03-19T17:14:40.401Z,5.85
2019-03-19T17:17:08.437Z,5.73
2019-03-19T17:19:36.419Z,5.73
2019-03-19T17:22:04.472Z,5.69
2019-03-19T17:24:32.284Z,5.66
2019-03-19T17:27:00.581Z,5.60
2019-03-19T17:29:28.536Z,5.58
2019-03-19T17:31:56.693Z,5.53
2019-03-19T17:34:24.783Z,5.48
2019-03-19T17:36:55.417Z,5.41
2019-03-19T17:39:23.399Z,5.41
2019-03-19T17:41:51.447Z,5.30
2019-03-19T17:44:19.230Z,5.13
2019-03-19T17:46:47.253Z,5.16
2019-03-19T17:49:15.148Z,5.12
2019-03-19T17:51:43.398Z,4.98
2019-03-19T17:54:11.430Z,4.90
2019-03-19T17:56:49.765Z,4.92
2019-03-19T17:59:17.982Z,4.86
2019-03-19T18:01:45.912Z,4.79
2019-03-19T18:04:13.820Z,4.76
2019-03-19T18:06:43.160Z,4.72
2019-03-19T18:09:11.451Z,4.72
2019-03-19T18:11:39.470Z,4.71
2019-03-19T18:14:07.363Z,4.66
2019-03-19T18:16:35.272Z,4.55
2019-03-19T18:19:03.364Z,4.62
2019-03-19T18:21:31.558Z,4.62
2019-03-19T18:23:59.778Z,4.47
2019-03-19T18:26:27.589Z,4.43
2019-03-19T18:28:55.672Z,4.33
2019-03-19T18:31:23.664Z,4.33
2019-03-19T18:33:51.501Z,4.22
2019-03-19T18:36:19.526Z,4.19
2019-03-19T18:38:47.692Z,4.24
2019-03-19T18:41:15.820Z,4.19
2019-03-19T18:43:43.995Z,4.28
2019-03-19T18:46:12.080Z,4.32
2019-03-19T18:48:40.195Z,4.29
2019-03-19T18:51:08.197Z,4.34
2019-03-19T18:53:36.320Z,4.15
2019-03-19T18:56:05.576Z,4.12
2019-03-19T18:58:33.585Z,4.22
2019-03-19T19:01:01.571Z,4.22
2019-03-19T19:03:30.372Z,4.28
2019-03-19T19:05:59.458Z,4.32
2019-03-19T19:08:28.624Z,4.22
2019-03-19T19:10:56.820Z,4.17
2019-03-19T19:13:25.043Z,4.13
2019-03-19T19:15:53.151Z,3.94
2019-03-19T19:18:21.095Z,3.91
2019-03-19T19:20:50.023Z,3.87
2019-03-19T19:23:20.700Z,3.77
2019-03-19T19:25:49.905Z,3.71
2019-03-19T19:28:17.763Z,3.59
2019-03-19T19:30:45.771Z,3.68
2019-03-19T19:33:13.895Z,3.61
2019-03-19T19:35:41.945Z,3.62
2019-03-19T19:38:10.893Z,3.67
2019-03-19T19:40:38.781Z,3.83
2019-03-19T19:43:06.660Z,4.08
2019-03-19T19:45:34.922Z,4.17
2019-03-19T19:48:02.834Z,4.19
2019-03-19T19:50:31.249Z,4.33
2019-03-19T19:52:59.730Z,4.25
2019-03-19T19:55:27.684Z,4.27
2019-03-19T19:57:55.916Z,4.36
2019-03-19T20:00:24.144Z,4.42
2019-03-19T20:02:52.247Z,4.32
2019-03-19T20:05:20.329Z,4.34
2019-03-19T20:07:48.361Z,4.25
2019-03-19T20:10:16.945Z,4.11
2019-03-19T20:12:45.348Z,3.97
2019-03-19T20:15:14.045Z,3.92
2019-03-19T20:17:42.643Z,3.92
2019-03-19T20:20:13.398Z,3.88
2019-03-19T20:22:41.580Z,3.79
2019-03-19T20:25:09.831Z,3.65
2019-03-19T20:27:38.088Z,3.80
2019-03-19T20:30:07.924Z,3.91
2019-03-19T20:32:35.979Z,3.92
2019-03-19T20:35:05.468Z,3.91
2019-03-19T20:37:35.443Z,3.85
2019-03-19T20:40:11.284Z,3.89
2019-03-19T20:42:40.226Z,3.91
2019-03-19T20:45:09.732Z,3.85
2019-03-19T20:47:38.090Z,3.94
2019-03-19T20:50:09.872Z,3.94
2019-03-19T20:52:37.864Z,4.08
2019-03-19T20:55:05.964Z,4.03
2019-03-19T20:57:33.994Z,4.06
2019-03-19T21:00:01.947Z,4.06
2019-03-19T21:02:31.740Z,4.03
2019-03-19T21:04:59.749Z,4.16
2019-03-19T21:07:27.984Z,4.07
2019-03-19T21:09:56.030Z,4.05
2019-03-19T21:12:24.023Z,4.07
2019-03-19T21:14:53.306Z,4.15
2019-03-19T21:17:21.258Z,4.14
2019-03-19T21:19:49.217Z,4.09
2019-03-19T21:22:17.184Z,4.10
2019-03-19T21:24:45.394Z,4.14
2019-03-19T21:27:13.510Z,4.17
2019-03-19T21:29:41.601Z,4.18
2019-03-19T21:32:09.596Z,3.91
2019-03-19T21:34:37.724Z,4.08
2019-03-19T21:37:05.833Z,4.08
2019-03-19T21:39:33.808Z,4.04
2019-03-19T21:42:01.816Z,4.09
2019-03-19T21:44:29.811Z,4.05
2019-03-19T21:46:57.681Z,4.02
2019-03-19T21:49:25.676Z,4.02
2019-03-19T21:51:53.513Z,4.02
2019-03-19T21:54:21.386Z,4.05
2019-03-19T21:56:49.432Z,4.13
2019-03-19T21:59:17.637Z,4.16
2019-03-19T22:01:46.444Z,4.17
2019-03-19T22:04:14.370Z,4.30
2019-03-19T22:06:42.477Z,4.36
2019-03-19T22:09:10.509Z,4.29
2019-03-19T22:11:38.739Z,4.30
2019-03-19T22:14:06.599Z,4.27
2019-03-19T22:16:34.722Z,4.21
2019-03-19T22:19:02.806Z,4.12
2019-03-19T22:21:30.867Z,4.08
2019-03-19T22:23:58.912Z,4.05
2019-03-19T22:26:26.976Z,4.03
2019-03-19T22:28:55.113Z,4.14
2019-03-19T22:31:23.127Z,4.46
2019-03-19T22:33:51.163Z,4.44
2019-03-19T22:36:20.471Z,4.40
2019-03-19T22:38:48.329Z,4.49
2019-03-19T22:41:16.404Z,4.50
2019-03-19T22:43:44.326Z,4.46
2019-03-19T22:46:21.387Z,4.53
2019-03-19T22:48:42.841Z,4.51
2019-03-19T22:51:10.892Z,4.43
2019-03-19T22:53:39.218Z,4.31
2019-03-19T22:56:07.190Z,4.28
2019-03-19T22:58:35.527Z,4.29
2019-03-19T23:01:03.678Z,4.10
2019-03-19T23:03:33.444Z,4.26
2019-03-19T23:06:01.566Z,4.12
2019-03-19T23:08:29.577Z,4.12
2019-03-19T23:10:57.668Z,4.29
2019-03-19T23:13:25.675Z,4.24
2019-03-19T23:15:53.801Z,4.17
2019-03-19T23:18:21.718Z,4.13
2019-03-19T23:20:49.891Z,4.08
2019-03-19T23:23:18.023Z,4.21
2019-03-19T23:25:46.121Z,4.20
2019-03-19T23:28:14.352Z,4.10
2019-03-19T23:30:42.744Z,4.10
2019-03-19T23:33:11.894Z,4.05
2019-03-19T23:35:39.935Z,4.02
2019-03-19T23:38:07.779Z,4.10
2019-03-19T23:40:35.845Z,4.13
2019-03-19T23:43:03.936Z,4.12
2019-03-19T23:45:32.063Z,4.11
2019-03-19T23:47:59.847Z,4.09
2019-03-19T23:50:27.868Z,4.05
2019-03-19T23:52:55.994Z,4.05
2019-03-19T23:55:23.772Z,4.06
2019-03-19T23:57:51.777Z,4.05
